Station Historical Data
Daily Summary for January 11, 2017 Units:  English    Metric   Both
« Previous Day
Next Day »
Daily Weekly Monthly Yearly Custom
  High: Low: Average:
Temperature: 52.0 °F 35.3 °F 43.4 °F
Dew Point: 45.5 °F 23.6 °F 32 °F
Humidity: 86% 36% 66%
Wind Speed: 26.0mph 0.0mph 8.3mph
Wind Gust: 42.0mph - -
Wind- - SSW
Pressure: 30.17 in 29.60 in -
Precipitation: 0.00 in    
Historical Graphs
 
 
Tabular Data for January 11, 2017
Time Temperature Dew Point Pressure Wind Wind Speed Wind Gust Humidity Rainfall Rate (Hourly)
00:04 44.2 °F 40.0 °F 29.62 in SSW 12.0 mph 21.0 mph 85% 0.04 in
00:09 44.5 °F 40.3 °F 29.62 in SSW 13.0 mph 32.0 mph 85% 0.04 in
00:14 44.8 °F 40.3 °F 29.60 in South 15.0 mph 32.0 mph 84% 0.04 in
00:19 44.7 °F 40.2 °F 29.60 in South 15.0 mph 28.0 mph 84% 0.03 in
00:24 44.8 °F 40.3 °F 29.60 in South 14.0 mph 28.0 mph 84% 0.03 in
00:29 44.9 °F 40.4 °F 29.61 in SSW 11.0 mph 23.0 mph 84% 0.03 in
00:34 44.9 °F 40.4 °F 29.60 in SSW 11.0 mph 20.0 mph 84% 0.02 in
00:39 44.8 °F 40.3 °F 29.60 in South 11.0 mph 24.0 mph 84% 0.02 in
00:44 44.9 °F 40.4 °F 29.61 in SSW 8.0 mph 25.0 mph 84% 0.01 in
00:49 44.9 °F 40.0 °F 29.61 in SSW 12.0 mph 26.0 mph 83% 0.01 in
00:54 44.9 °F 40.0 °F 29.60 in SSE 19.0 mph 26.0 mph 83% 0.01 in
00:59 45.1 °F 40.2 °F 29.60 in SSW 17.0 mph 24.0 mph 83% 0.00 in
01:04 45.0 °F 40.1 °F 29.61 in South 17.0 mph 22.0 mph 83% 0.00 in
01:09 45.1 °F 40.6 °F 29.61 in SSE 11.0 mph 20.0 mph 84% 0.01 in
01:14 45.2 °F 40.7 °F 29.62 in SSW 8.0 mph 22.0 mph 84% 0.01 in
01:19 45.2 °F 41.3 °F 29.67 in SW 12.0 mph 39.0 mph 86% 0.06 in
01:24 44.2 °F 39.7 °F 29.68 in SW 18.0 mph 42.0 mph 84% 0.06 in
01:29 43.0 °F 38.5 °F 29.69 in WSW 19.0 mph 42.0 mph 84% 0.06 in
01:34 42.1 °F 37.9 °F 29.69 in WSW 18.0 mph 40.0 mph 85% 0.07 in
01:39 41.5 °F 37.3 °F 29.70 in WSW 20.0 mph 40.0 mph 85% 0.07 in
01:44 41.2 °F 36.7 °F 29.71 in WSW 19.0 mph 35.0 mph 84% 0.07 in
01:49 40.7 °F 35.9 °F 29.73 in WSW 18.0 mph 33.0 mph 83% 0.07 in
01:54 40.3 °F 35.2 °F 29.73 in SW 21.0 mph 31.0 mph 82% 0.07 in
01:59 39.8 °F 34.8 °F 29.75 in WSW 15.0 mph 30.0 mph 82% 0.07 in
02:04 39.5 °F 34.5 °F 29.76 in West 15.0 mph 39.0 mph 82% 0.07 in
02:09 39.3 °F 34.3 °F 29.77 in SW 13.0 mph 28.0 mph 82% 0.06 in
02:14 39.2 °F 34.2 °F 29.77 in West 26.0 mph 32.0 mph 82% 0.06 in
02:19 39.0 °F 34.0 °F 29.78 in SW 21.0 mph 32.0 mph 82% 0.01 in
02:24 38.8 °F 33.8 °F 29.80 in WSW 10.0 mph 40.0 mph 82% 0.01 in
02:29 38.6 °F 33.6 °F 29.80 in WSW 17.0 mph 40.0 mph 82% 0.01 in
02:34 38.4 °F 33.4 °F 29.80 in WSW 17.0 mph 35.0 mph 82% 0.00 in
02:39 38.2 °F 33.2 °F 29.81 in WSW 17.0 mph 35.0 mph 82% 0.00 in
02:44 38.2 °F 33.2 °F 29.82 in SW 9.0 mph 32.0 mph 82% 0.00 in
02:49 38.1 °F 33.1 °F 29.83 in WSW 18.0 mph 32.0 mph 82% 0.00 in
02:54 38.0 °F 33.0 °F 29.83 in WSW 17.0 mph 31.0 mph 82% 0.00 in
02:59 37.9 °F 32.9 °F 29.85 in SW 16.0 mph 31.0 mph 82% 0.00 in
03:04 37.8 °F 32.8 °F 29.85 in SW 11.0 mph 29.0 mph 82% 0.00 in
03:09 37.7 °F 32.4 °F 29.86 in SSW 14.0 mph 31.0 mph 81% 0.00 in
03:14 37.6 °F 32.3 °F 29.87 in WSW 8.0 mph 32.0 mph 81% 0.00 in
03:19 37.5 °F 32.5 °F 29.88 in SSW 17.0 mph 28.0 mph 82% 0.00 in
03:24 37.6 °F 32.6 °F 29.88 in WSW 15.0 mph 33.0 mph 82% 0.00 in
03:29 37.7 °F 33.0 °F 29.90 in WSW 16.0 mph 33.0 mph 83% 0.00 in
03:34 37.6 °F 32.9 °F 29.89 in WSW 15.0 mph 33.0 mph 83% 0.00 in
03:39 37.6 °F 32.9 °F 29.90 in SW 22.0 mph 32.0 mph 83% 0.00 in
03:44 37.5 °F 32.5 °F 29.89 in WSW 15.0 mph 32.0 mph 82% 0.00 in
03:49 37.5 °F 32.5 °F 29.89 in SW 19.0 mph 31.0 mph 82% 0.00 in
03:54 37.4 °F 32.4 °F 29.90 in SW 18.0 mph 29.0 mph 82% 0.00 in
03:59 37.3 °F 32.3 °F 29.90 in WSW 15.0 mph 29.0 mph 82% 0.00 in
04:04 37.2 °F 32.5 °F 29.90 in WSW 14.0 mph 26.0 mph 83% 0.00 in
04:09 37.0 °F 32.3 °F 29.91 in SW 12.0 mph 25.0 mph 83% 0.00 in
04:14 37.0 °F 32.3 °F 29.91 in WSW 12.0 mph 29.0 mph 83% 0.00 in
04:19 36.9 °F 32.2 °F 29.92 in SW 18.0 mph 26.0 mph 83% 0.00 in
04:24 36.9 °F 32.2 °F 29.93 in SW 14.0 mph 28.0 mph 83% 0.00 in
04:29 36.8 °F 32.1 °F 29.94 in SW 16.0 mph 30.0 mph 83% 0.00 in
04:34 36.8 °F 31.8 °F 29.94 in SW 15.0 mph 30.0 mph 82% 0.00 in
04:39 36.8 °F 31.8 °F 29.95 in WSW 16.0 mph 28.0 mph 82% 0.00 in
04:49 36.5 °F 31.5 °F 29.96 in SW 8.0 mph 29.0 mph 82% 0.00 in
04:54 36.4 °F 31.4 °F 29.97 in WSW 13.0 mph 23.0 mph 82% 0.00 in
04:59 36.3 °F 31.0 °F 29.97 in WSW 14.0 mph 29.0 mph 81% 0.00 in
05:04 36.3 °F 31.0 °F 29.97 in WSW 15.0 mph 32.0 mph 81% 0.00 in
05:09 36.2 °F 30.9 °F 29.97 in WSW 13.0 mph 32.0 mph 81% 0.00 in
05:14 36.1 °F 30.8 °F 29.98 in SW 13.0 mph 25.0 mph 81% 0.00 in
05:19 36.1 °F 30.8 °F 29.99 in SSW 11.0 mph 25.0 mph 81% 0.00 in
05:24 36.1 °F 30.8 °F 29.99 in South 7.0 mph 22.0 mph 81% 0.00 in
05:29 36.0 °F 30.7 °F 30.00 in SW 15.0 mph 25.0 mph 81% 0.00 in
05:34 36.0 °F 30.7 °F 30.00 in WSW 15.0 mph 26.0 mph 81% 0.00 in
05:39 36.0 °F 30.7 °F 30.01 in SW 12.0 mph 22.0 mph 81% 0.00 in
05:44 36.0 °F 30.7 °F 30.01 in SW 15.0 mph 32.0 mph 81% 0.00 in
05:49 36.0 °F 30.4 °F 30.02 in West 13.0 mph 26.0 mph 80% 0.00 in
05:54 36.0 °F 30.4 °F 30.02 in WNW 20.0 mph 30.0 mph 80% 0.00 in
05:59 36.0 °F 30.1 °F 30.03 in WSW 9.0 mph 29.0 mph 79% 0.00 in
06:04 35.9 °F 30.3 °F 30.03 in SW 10.0 mph 23.0 mph 80% 0.00 in
06:09 35.9 °F 30.3 °F 30.03 in WSW 12.0 mph 24.0 mph 80% 0.00 in
06:14 35.9 °F 30.3 °F 30.04 in WSW 12.0 mph 24.0 mph 80% 0.00 in
06:19 35.9 °F 30.6 °F 30.05 in WSW 12.0 mph 22.0 mph 81% 0.00 in
06:24 35.9 °F 30.3 °F 30.04 in SW 11.0 mph 22.0 mph 80% 0.00 in
06:29 35.7 °F 30.1 °F 30.04 in WSW 11.0 mph 25.0 mph 80% 0.00 in
06:34 35.6 °F 30.0 °F 30.04 in WSW 19.0 mph 20.0 mph 80% 0.00 in
06:39 35.6 °F 30.0 °F 30.04 in WSW 12.0 mph 24.0 mph 80% 0.00 in
06:44 35.6 °F 30.0 °F 30.05 in SW 12.0 mph 22.0 mph 80% 0.00 in
06:49 35.6 °F 30.0 °F 30.05 in SW 14.0 mph 22.0 mph 80% 0.00 in
06:54 35.6 °F 30.0 °F 30.05 in SSW 7.0 mph 22.0 mph 80% 0.00 in
06:59 35.6 °F 30.0 °F 30.07 in SW 16.0 mph 24.0 mph 80% 0.00 in
07:04 35.6 °F 29.7 °F 30.07 in WSW 12.0 mph 21.0 mph 79% 0.00 in
07:09 35.5 °F 29.9 °F 30.08 in WSW 12.0 mph 21.0 mph 80% 0.00 in
07:19 35.3 °F 29.7 °F 30.08 in WSW 10.0 mph 21.0 mph 80% 0.00 in
07:24 35.3 °F 29.7 °F 30.09 in West 14.0 mph 20.0 mph 80% 0.00 in
07:29 35.4 °F 29.8 °F 30.09 in SW 11.0 mph 22.0 mph 80% 0.00 in
07:34 35.3 °F 29.7 °F 30.09 in SW 11.0 mph 22.0 mph 80% 0.00 in
07:39 35.4 °F 29.8 °F 30.10 in WSW 12.0 mph 23.0 mph 80% 0.00 in
07:44 35.3 °F 29.7 °F 30.10 in WSW 10.0 mph 18.0 mph 80% 0.00 in
07:49 35.3 °F 29.7 °F 30.11 in WSW 8.0 mph 21.0 mph 80% 0.00 in
07:54 35.5 °F 29.6 °F 30.11 in WSW 11.0 mph 22.0 mph 79% 0.00 in
07:59 35.6 °F 29.4 °F 30.11 in SW 11.0 mph 22.0 mph 78% 0.00 in
08:04 35.6 °F 29.4 °F 30.12 in WSW 10.0 mph 20.0 mph 78% 0.00 in
08:09 35.7 °F 29.2 °F 30.12 in WSW 9.0 mph 19.0 mph 77% 0.00 in
08:14 35.8 °F 29.3 °F 30.12 in SW 13.0 mph 18.0 mph 77% 0.00 in
08:19 35.8 °F 29.3 °F 30.13 in SW 10.0 mph 22.0 mph 77% 0.00 in
08:24 35.9 °F 29.4 °F 30.13 in WSW 17.0 mph 20.0 mph 77% 0.00 in
08:29 36.1 °F 29.3 °F 30.14 in SW 11.0 mph 20.0 mph 76% 0.00 in
08:34 36.2 °F 29.4 °F 30.14 in SW 11.0 mph 22.0 mph 76% 0.00 in
08:39 36.3 °F 29.5 °F 30.14 in WSW 10.0 mph 22.0 mph 76% 0.00 in
08:44 36.5 °F 29.3 °F 30.15 in WSW 10.0 mph 24.0 mph 75% 0.00 in
08:49 36.7 °F 29.5 °F 30.15 in SW 8.0 mph 20.0 mph 75% 0.00 in
08:54 36.8 °F 29.6 °F 30.15 in WNW 8.0 mph 17.0 mph 75% 0.00 in
08:59 37.0 °F 29.5 °F 30.15 in SW 9.0 mph 25.0 mph 74% 0.00 in
09:04 37.2 °F 30.0 °F 30.15 in SW 6.0 mph 17.0 mph 75% 0.00 in
09:09 37.5 °F 30.0 °F 30.15 in SW 11.0 mph 21.0 mph 74% 0.00 in
09:14 37.5 °F 30.0 °F 30.16 in SW 8.0 mph 12.0 mph 74% 0.00 in
09:19 37.7 °F 29.8 °F 30.16 in SW 11.0 mph 20.0 mph 73% 0.00 in
09:24 37.9 °F 29.7 °F 30.16 in SW 9.0 mph 20.0 mph 72% 0.00 in
09:29 38.1 °F 29.5 °F 30.16 in WSW 6.0 mph 14.0 mph 71% 0.00 in
09:34 38.4 °F 29.1 °F 30.16 in WSW 12.0 mph 15.0 mph 69% 0.00 in
09:39 38.6 °F 28.9 °F 30.17 in SW 8.0 mph 15.0 mph 68% 0.00 in
09:44 38.7 °F 28.3 °F 30.17 in SW 8.0 mph 15.0 mph 66% 0.00 in
09:49 39.0 °F 28.2 °F 30.17 in SW 8.0 mph 14.0 mph 65% 0.00 in
09:54 39.4 °F 28.2 °F 30.17 in SW 7.0 mph 14.0 mph 64% 0.00 in
09:59 39.8 °F 28.2 °F 30.17 in WSW 8.0 mph 15.0 mph 63% 0.00 in
10:04 39.9 °F 27.5 °F 30.17 in SSW 7.0 mph 16.0 mph 61% 0.00 in
10:09 40.3 °F 27.9 °F 30.17 in South 5.0 mph 16.0 mph 61% 0.00 in
10:14 40.6 °F 27.8 °F 30.17 in SW 10.0 mph 17.0 mph 60% 0.00 in
10:19 41.1 °F 27.9 °F 30.16 in SW 4.0 mph 16.0 mph 59% 0.00 in
10:24 41.3 °F 28.0 °F 30.17 in SW 8.0 mph 16.0 mph 59% 0.00 in
10:29 41.3 °F 27.6 °F 30.17 in South 7.0 mph 14.0 mph 58% 0.00 in
10:34 40.8 °F 27.6 °F 30.17 in SW 8.0 mph 17.0 mph 59% 0.00 in
10:44 41.7 °F 27.6 °F 30.16 in WNW 4.0 mph 14.0 mph 57% 0.00 in
10:49 42.0 °F 28.3 °F 30.17 in West 8.0 mph 13.0 mph 58% 0.00 in
10:54 42.0 °F 28.3 °F 30.17 in SW 7.0 mph 13.0 mph 58% 0.00 in
10:59 42.1 °F 28.4 °F 30.17 in SW 6.0 mph 12.0 mph 58% 0.00 in
11:04 42.0 °F 28.3 °F 30.16 in WSW 7.0 mph 15.0 mph 58% 0.00 in
11:09 42.1 °F 27.9 °F 30.16 in SW 6.0 mph 15.0 mph 57% 0.00 in
11:14 41.9 °F 28.2 °F 30.15 in WSW 5.0 mph 14.0 mph 58% 0.00 in
11:19 42.0 °F 28.7 °F 30.15 in SSW 4.0 mph 11.0 mph 59% 0.00 in
11:24 42.0 °F 27.9 °F 30.15 in SW 8.0 mph 8.0 mph 57% 0.00 in
11:29 42.2 °F 28.9 °F 30.15 in SSW 4.0 mph 8.0 mph 59% 0.00 in
11:34 42.3 °F 29.0 °F 30.14 in SW 4.0 mph 6.0 mph 59% 0.00 in
11:39 42.5 °F 28.3 °F 30.15 in WSW 2.0 mph 10.0 mph 57% 0.00 in
11:44 42.8 °F 28.6 °F 30.15 in SSW 5.0 mph 10.0 mph 57% 0.00 in
11:49 43.1 °F 28.9 °F 30.15 in SSW 6.0 mph 16.0 mph 57% 0.00 in
11:54 43.8 °F 30.0 °F 30.13 in South 5.0 mph 9.0 mph 58% 0.00 in
11:59 43.6 °F 28.9 °F 30.13 in South 8.0 mph 15.0 mph 56% 0.00 in
12:04 43.8 °F 29.5 °F 30.12 in South 7.0 mph 15.0 mph 57% 0.00 in
12:09 44.2 °F 29.5 °F 30.12 in SSW 7.0 mph 12.0 mph 56% 0.00 in
12:14 44.7 °F 30.4 °F 30.11 in SSW 6.0 mph 12.0 mph 57% 0.00 in
12:19 45.0 °F 29.8 °F 30.11 in SSW 7.0 mph 10.0 mph 55% 0.00 in
12:24 44.6 °F 29.4 °F 30.11 in SSW 5.0 mph 9.0 mph 55% 0.00 in
12:29 44.9 °F 28.8 °F 30.10 in SSW 5.0 mph 11.0 mph 53% 0.00 in
12:34 45.4 °F 28.3 °F 30.10 in SSW 6.0 mph 11.0 mph 51% 0.00 in
12:39 45.7 °F 29.1 °F 30.09 in WSW 10.0 mph 14.0 mph 52% 0.00 in
12:44 46.2 °F 28.6 °F 30.10 in SSW 12.0 mph 12.0 mph 50% 0.00 in
12:49 46.0 °F 27.9 °F 30.09 in SSW 6.0 mph 13.0 mph 49% 0.00 in
12:54 45.8 °F 27.2 °F 30.09 in SSW 6.0 mph 12.0 mph 48% 0.00 in
12:59 46.0 °F 28.4 °F 30.08 in SSE 7.0 mph 12.0 mph 50% 0.00 in
13:04 46.3 °F 27.2 °F 30.08 in South 7.0 mph 13.0 mph 47% 0.00 in
13:09 46.7 °F 26.5 °F 30.07 in SSW 7.0 mph 13.0 mph 45% 0.00 in
13:14 47.0 °F 26.2 °F 30.07 in SSW 6.0 mph 14.0 mph 44% 0.00 in
13:19 47.4 °F 27.6 °F 30.07 in SSW 2.0 mph 11.0 mph 46% 0.00 in
13:24 48.2 °F 27.3 °F 30.07 in SSE 6.0 mph 9.0 mph 44% 0.00 in
13:29 48.7 °F 27.2 °F 30.07 in South 4.0 mph 11.0 mph 43% 0.00 in
13:34 48.2 °F 26.2 °F 30.06 in South 6.0 mph 15.0 mph 42% 0.00 in
13:39 48.2 °F 26.2 °F 30.06 in South 7.0 mph 16.0 mph 42% 0.00 in
13:44 48.9 °F 26.2 °F 30.05 in South 7.0 mph 16.0 mph 41% 0.00 in
13:49 49.4 °F 26.7 °F 30.05 in South 7.0 mph 13.0 mph 41% 0.00 in
13:54 49.4 °F 26.1 °F 30.05 in WSW 9.0 mph 10.0 mph 40% 0.00 in
13:59 49.4 °F 26.7 °F 30.04 in SSW 6.0 mph 10.0 mph 41% 0.00 in
14:04 49.1 °F 25.2 °F 30.04 in SSW 6.0 mph 16.0 mph 39% 0.00 in
14:09 48.9 °F 25.0 °F 30.04 in SSW 6.0 mph 16.0 mph 39% 0.00 in
14:14 49.1 °F 25.2 °F 30.03 in South 8.0 mph 16.0 mph 39% 0.00 in
14:19 49.3 °F 24.7 °F 30.02 in SSW 8.0 mph 16.0 mph 38% 0.00 in
14:24 49.4 °F 24.2 °F 30.03 in SSW 5.0 mph 12.0 mph 37% 0.00 in
14:29 49.5 °F 24.3 °F 30.02 in SSW 8.0 mph 10.0 mph 37% 0.00 in
14:34 49.4 °F 24.2 °F 30.02 in South 5.0 mph 11.0 mph 37% 0.00 in
14:39 49.5 °F 23.6 °F 30.01 in South 6.0 mph 14.0 mph 36% 0.00 in
14:44 49.6 °F 24.4 °F 30.01 in SSW 6.0 mph 10.0 mph 37% 0.00 in
14:49 49.6 °F 23.7 °F 30.02 in South 10.0 mph 16.0 mph 36% 0.00 in
14:54 49.6 °F 25.0 °F 30.02 in South 10.0 mph 14.0 mph 38% 0.00 in
14:59 49.7 °F 25.1 °F 30.01 in SSW 6.0 mph 14.0 mph 38% 0.00 in
15:04 49.6 °F 25.0 °F 30.01 in SSW 6.0 mph 11.0 mph 38% 0.00 in
15:09 49.5 °F 24.9 °F 30.00 in SSW 6.0 mph 14.0 mph 38% 0.00 in
15:14 49.4 °F 24.8 °F 30.00 in SSW 6.0 mph 14.0 mph 38% 0.00 in
15:19 49.4 °F 24.8 °F 30.00 in South 6.0 mph 13.0 mph 38% 0.00 in
15:24 49.4 °F 24.2 °F 30.00 in SSW 6.0 mph 12.0 mph 37% 0.00 in
15:29 49.2 °F 24.6 °F 30.00 in SSW 5.0 mph 11.0 mph 38% 0.00 in
15:34 49.2 °F 25.3 °F 30.00 in SW 3.0 mph 10.0 mph 39% 0.00 in
15:39 49.1 °F 25.2 °F 30.00 in SW 3.0 mph 13.0 mph 39% 0.00 in
15:44 49.0 °F 25.1 °F 30.00 in South 4.0 mph 11.0 mph 39% 0.00 in
15:49 49.0 °F 25.1 °F 30.01 in SW 3.0 mph 12.0 mph 39% 0.00 in
15:54 48.9 °F 25.6 °F 30.01 in SW 7.0 mph 11.0 mph 40% 0.00 in
15:59 48.6 °F 26.5 °F 30.01 in WSW 2.0 mph 9.0 mph 42% 0.00 in
16:04 48.6 °F 26.5 °F 30.01 in SSW 5.0 mph 11.0 mph 42% 0.00 in
16:09 48.3 °F 26.8 °F 30.01 in SSW 4.0 mph 11.0 mph 43% 0.00 in
16:14 48.4 °F 26.9 °F 30.01 in SW 4.0 mph 9.0 mph 43% 0.00 in
16:19 48.2 °F 26.7 °F 30.01 in SW 4.0 mph 9.0 mph 43% 0.00 in
16:24 48.0 °F 27.1 °F 30.00 in SSE 3.0 mph 7.0 mph 44% 0.00 in
16:29 47.9 °F 27.6 °F 30.00 in South 5.0 mph 8.0 mph 45% 0.00 in
16:34 47.6 °F 27.8 °F 29.99 in SSW 3.0 mph 8.0 mph 46% 0.00 in
16:39 47.3 °F 27.5 °F 29.99 in SSW 2.0 mph 5.0 mph 46% 0.00 in
16:44 47.1 °F 27.9 °F 29.99 in SSW 2.0 mph 5.0 mph 47% 0.00 in
16:49 46.8 °F 27.6 °F 29.98 in SSW 1.0 mph 3.0 mph 47% 0.00 in
16:54 46.3 °F 27.7 °F 29.98 in Calm   2.0 mph 48% 0.00 in
16:59 45.8 °F 27.7 °F 29.98 in Calm   1.0 mph 49% 0.00 in
17:04 45.3 °F 27.7 °F 29.97 in Calm   2.0 mph 50% 0.00 in
17:09 45.2 °F 27.6 °F 29.98 in Calm   2.0 mph 50% 0.00 in
17:14 44.8 °F 27.8 °F 29.98 in Calm   1.0 mph 51% 0.00 in
17:19 44.5 °F 28.0 °F 29.98 in Calm     52% 0.00 in
17:24 43.8 °F 27.8 °F 29.97 in Calm     53% 0.00 in
17:29 43.4 °F 27.8 °F 29.97 in Calm     54% 0.00 in
17:34 43.2 °F 28.1 °F 29.97 in Calm     55% 0.00 in
17:39 43.6 °F 28.5 °F 29.96 in Calm     55% 0.00 in
17:44 44.4 °F 29.2 °F 29.95 in SSE 2.0 mph 2.0 mph 55% 0.00 in
17:49 45.0 °F 29.8 °F 29.95 in South 1.0 mph 3.0 mph 55% 0.00 in
17:54 45.2 °F 30.4 °F 29.95 in South 1.0 mph 3.0 mph 56% 0.00 in
17:59 45.0 °F 30.2 °F 29.95 in SW 1.0 mph 3.0 mph 56% 0.00 in
18:09 44.7 °F 30.4 °F 29.95 in SW 1.0 mph 3.0 mph 57% 0.00 in
18:14 44.5 °F 30.2 °F 29.95 in SW 1.0 mph 3.0 mph 57% 0.00 in
18:19 44.2 °F 30.3 °F 29.95 in Calm   2.0 mph 58% 0.00 in
18:24 43.9 °F 30.1 °F 29.95 in Calm     58% 0.00 in
18:29 43.8 °F 30.4 °F 29.94 in Calm     59% 0.00 in
18:34 43.8 °F 30.8 °F 29.95 in Calm     60% 0.00 in
18:39 44.3 °F 31.3 °F 29.95 in Calm     60% 0.00 in
18:44 44.7 °F 31.7 °F 29.94 in Calm   3.0 mph 60% 0.00 in
18:49 45.0 °F 32.3 °F 29.94 in South 2.0 mph 3.0 mph 61% 0.00 in
18:54 44.8 °F 32.6 °F 29.94 in Calm   2.0 mph 62% 0.00 in
18:59 44.3 °F 32.1 °F 29.95 in Calm   1.0 mph 62% 0.00 in
19:04 43.9 °F 32.5 °F 29.94 in Calm     64% 0.00 in
19:09 44.1 °F 32.3 °F 29.94 in Calm     63% 0.00 in
19:14 44.2 °F 32.4 °F 29.94 in Calm   3.0 mph 63% 0.00 in
19:19 44.6 °F 33.2 °F 29.94 in South 1.0 mph 3.0 mph 64% 0.00 in
19:24 45.0 °F 33.2 °F 29.93 in SSE 2.0 mph 4.0 mph 63% 0.00 in
19:29 45.2 °F 32.9 °F 29.93 in SSE 2.0 mph 6.0 mph 62% 0.00 in
19:34 45.4 °F 33.1 °F 29.93 in SSW 1.0 mph 3.0 mph 62% 0.00 in
19:39 45.1 °F 33.2 °F 29.93 in SSW 3.0 mph 3.0 mph 63% 0.00 in
19:44 45.8 °F 33.9 °F 29.93 in South 2.0 mph 5.0 mph 63% 0.00 in
19:49 46.5 °F 34.2 °F 29.93 in South 3.0 mph 6.0 mph 62% 0.00 in
19:54 46.9 °F 34.1 °F 29.92 in South 3.0 mph 7.0 mph 61% 0.00 in
19:59 47.2 °F 34.4 °F 29.92 in South 4.0 mph 7.0 mph 61% 0.00 in
20:04 47.1 °F 34.3 °F 29.92 in South 3.0 mph 6.0 mph 61% 0.00 in
20:09 47.0 °F 34.6 °F 29.92 in South 3.0 mph 6.0 mph 62% 0.00 in
20:14 46.7 °F 34.8 °F 29.92 in South 3.0 mph 6.0 mph 63% 0.00 in
20:19 47.0 °F 35.4 °F 29.91 in South 3.0 mph 6.0 mph 64% 0.00 in
20:24 48.0 °F 36.4 °F 29.91 in South 4.0 mph 9.0 mph 64% 0.00 in
20:29 48.7 °F 36.7 °F 29.91 in SSW 1.0 mph 9.0 mph 63% 0.00 in
20:34 49.3 °F 36.8 °F 29.90 in SSW 3.0 mph 8.0 mph 62% 0.00 in
20:39 49.9 °F 37.0 °F 29.90 in South 3.0 mph 10.0 mph 61% 0.00 in
20:44 49.9 °F 37.0 °F 29.89 in South 3.0 mph 7.0 mph 61% 0.00 in
20:49 49.6 °F 36.7 °F 29.88 in South 4.0 mph 6.0 mph 61% 0.00 in
20:54 49.6 °F 36.7 °F 29.88 in SSE 4.0 mph 8.0 mph 61% 0.00 in
20:59 49.7 °F 36.8 °F 29.87 in South 5.0 mph 10.0 mph 61% 0.00 in
21:04 49.8 °F 36.9 °F 29.87 in South 5.0 mph 11.0 mph 61% 0.00 in
21:09 49.9 °F 37.4 °F 29.87 in South 2.0 mph 10.0 mph 62% 0.00 in
21:14 49.8 °F 37.3 °F 29.87 in South 2.0 mph 7.0 mph 62% 0.00 in
21:19 49.7 °F 37.2 °F 29.87 in SSW 7.0 mph 12.0 mph 62% 0.00 in
21:24 50.0 °F 37.5 °F 29.87 in South 4.0 mph 9.0 mph 62% 0.00 in
21:29 50.3 °F 37.8 °F 29.86 in SSW 5.0 mph 11.0 mph 62% 0.00 in
21:34 50.3 °F 37.8 °F 29.86 in SSW 5.0 mph 11.0 mph 62% 0.00 in
21:39 50.4 °F 37.9 °F 29.86 in SSW 5.0 mph 11.0 mph 62% 0.00 in
21:49 50.3 °F 38.2 °F 29.84 in SW 6.0 mph 14.0 mph 63% 0.00 in
21:54 50.2 °F 38.5 °F 29.83 in SSW 4.0 mph 9.0 mph 64% 0.00 in
21:59 50.2 °F 38.5 °F 29.83 in South 6.0 mph 13.0 mph 64% 0.00 in
22:04 50.3 °F 39.0 °F 29.83 in South 6.0 mph 15.0 mph 65% 0.00 in
22:09 50.3 °F 39.0 °F 29.83 in SSW 5.0 mph 12.0 mph 65% 0.00 in
22:14 50.1 °F 39.2 °F 29.82 in SSE 5.0 mph 10.0 mph 66% 0.00 in
22:19 50.0 °F 39.1 °F 29.82 in South 8.0 mph 9.0 mph 66% 0.00 in
22:24 50.3 °F 40.1 °F 29.82 in South 6.0 mph 14.0 mph 68% 0.00 in
22:29 50.8 °F 41.0 °F 29.81 in South 5.0 mph 12.0 mph 69% 0.00 in
22:34 51.2 °F 41.7 °F 29.81 in South 7.0 mph 20.0 mph 70% 0.00 in
22:39 51.8 °F 42.7 °F 29.81 in South 10.0 mph 25.0 mph 71% 0.00 in
22:44 52.0 °F 42.5 °F 29.80 in South 11.0 mph 25.0 mph 70% 0.00 in
22:49 51.9 °F 42.8 °F 29.80 in South 10.0 mph 22.0 mph 71% 0.00 in
22:54 51.8 °F 43.4 °F 29.79 in SE 14.0 mph 21.0 mph 73% 0.00 in
22:59 51.7 °F 43.3 °F 29.79 in ESE 8.0 mph 18.0 mph 73% 0.00 in
23:04 51.5 °F 43.5 °F 29.80 in South 11.0 mph 18.0 mph 74% 0.00 in
23:09 51.4 °F 44.1 °F 29.79 in South 15.0 mph 19.0 mph 76% 0.00 in
23:14 51.2 °F 44.2 °F 29.79 in South 8.0 mph 16.0 mph 77% 0.00 in
23:19 51.2 °F 44.2 °F 29.80 in SSW 10.0 mph 22.0 mph 77% 0.00 in
23:24 51.0 °F 44.0 °F 29.80 in SSW 13.0 mph 22.0 mph 77% 0.00 in
23:29 51.0 °F 44.7 °F 29.80 in WSW 14.0 mph 24.0 mph 79% 0.00 in
23:34 50.4 °F 44.8 °F 29.79 in South 11.0 mph 17.0 mph 81% 0.01 in
23:39 50.0 °F 45.0 °F 29.79 in South 8.0 mph 17.0 mph 83% 0.02 in
23:44 49.8 °F 45.2 °F 29.78 in South 8.0 mph 17.0 mph 84% 0.03 in
23:49 49.7 °F 45.4 °F 29.78 in South 9.0 mph 17.0 mph 85% 0.03 in
23:54 49.7 °F 45.4 °F 29.78 in South 9.0 mph 17.0 mph 85% 0.03 in
23:59 49.8 °F 45.5 °F 29.77 in WSW 8.0 mph 16.0 mph 85% 0.03 in
Buffalo, New York, USA
Compliments of Weather Underground - 2.5 mb